Terminal Aerodrome Forecast
Issued by NWS Cleveland, OH

Home | Current Version | Previous Version | Text Only | Print | Product List | Glossary Off
Versions: 1 2 3 4 5 6 7 8 9 10 11 12 13 14 15 16 17 18 19 20 21

000
FTUS41 KCLE 271130
TAFCAK
TAF
KCAK 271130Z 2712/2812 10007KT 6SM BR VCSH SCT012 OVC025
     FM271400 10008KT P6SM OVC020
     FM272000 06005KT P6SM BKN035
     FM280000 03005KT P6SM SCT040 BKN120
     FM280900 VRB03KT 5SM BR BKN020=

USA.gov is the U.S. government's official web portal to all federal, state and local government web resources and services.